createdAt,value
2023-06-04T00:01:04.094Z,66.92
2023-06-04T00:03:52.033Z,67.03
2023-06-04T00:06:20.767Z,67.42
2023-06-04T00:08:48.681Z,67.73
2023-06-04T00:11:16.621Z,68.12
2023-06-04T00:13:44.552Z,67.91
2023-06-04T00:16:12.588Z,68.17
2023-06-04T00:18:40.622Z,68.24
2023-06-04T00:21:08.667Z,68.52
2023-06-04T00:23:36.742Z,68.61
2023-06-04T00:26:05.039Z,68.86
2023-06-04T00:28:33.014Z,68.89
2023-06-04T00:31:00.929Z,68.94
2023-06-04T00:33:28.801Z,69.05
2023-06-04T00:35:56.582Z,68.50
2023-06-04T00:38:24.600Z,68.78
2023-06-04T00:40:52.452Z,68.94
2023-06-04T00:43:20.383Z,69.20
2023-06-04T00:45:48.450Z,69.54
2023-06-04T00:48:16.437Z,69.70
2023-06-04T00:50:44.256Z,69.70
2023-06-04T00:53:12.628Z,70.02
2023-06-04T00:55:40.372Z,70.59
2023-06-04T00:58:10.591Z,70.70
2023-06-04T01:00:39.670Z,70.91
2023-06-04T01:03:14.611Z,71.42
2023-06-04T01:05:48.056Z,71.87
2023-06-04T01:08:16.517Z,72.18
2023-06-04T01:10:54.583Z,72.55
2023-06-04T01:13:23.511Z,72.92
2023-06-04T01:15:51.356Z,73.08
2023-06-04T01:18:30.801Z,73.26
2023-06-04T01:21:08.371Z,73.76
2023-06-04T01:23:59.731Z,74.02
2023-06-04T01:26:30.100Z,74.36
2023-06-04T01:28:59.883Z,74.79
2023-06-04T01:31:29.670Z,75.29
2023-06-04T01:33:59.148Z,75.01
2023-06-04T01:36:27.556Z,75.14
2023-06-04T01:38:55.817Z,75.36
2023-06-04T01:41:23.629Z,75.36
2023-06-04T01:43:51.533Z,75.38
2023-06-04T01:46:19.350Z,75.41
2023-06-04T01:48:50.057Z,75.85
2023-06-04T01:51:18.038Z,76.45
2023-06-04T01:53:46.078Z,77.00
2023-06-04T01:56:14.245Z,77.04
2023-06-04T01:58:42.074Z,77.09
2023-06-04T02:01:11.028Z,77.11
2023-06-04T02:03:39.049Z,77.14
2023-06-04T02:06:08.933Z,77.69
2023-06-04T02:08:37.282Z,77.99
2023-06-04T02:11:05.372Z,78.43
2023-06-04T02:13:33.284Z,78.71
2023-06-04T02:16:01.138Z,79.71
2023-06-04T02:18:29.816Z,80.26
2023-06-04T02:20:58.261Z,80.11
2023-06-04T02:23:26.081Z,80.09
2023-06-04T02:25:54.036Z,79.84
2023-06-04T02:28:22.170Z,80.02
2023-06-04T02:30:50.057Z,80.15
2023-06-04T02:33:18.371Z,80.30
2023-06-04T02:35:46.570Z,79.94
2023-06-04T02:38:14.666Z,79.71
2023-06-04T02:40:43.629Z,79.81
2023-06-04T02:43:11.522Z,80.13
2023-06-04T02:45:39.482Z,80.23
2023-06-04T02:48:07.575Z,80.44
2023-06-04T02:50:36.305Z,80.54
2023-06-04T02:53:04.128Z,80.38
2023-06-04T02:55:31.851Z,80.48
2023-06-04T02:57:59.630Z,80.53
2023-06-04T03:00:27.738Z,80.38
2023-06-04T03:03:02.557Z,80.06
2023-06-04T03:05:33.187Z,80.03
2023-06-04T03:08:03.902Z,79.62
2023-06-04T03:10:32.353Z,79.38
2023-06-04T03:13:00.421Z,79.77
2023-06-04T03:15:28.406Z,79.47
2023-06-04T03:17:56.465Z,79.80
2023-06-04T03:20:25.428Z,80.14
2023-06-04T03:22:53.844Z,79.89
2023-06-04T03:25:21.674Z,79.23
2023-06-04T03:27:49.555Z,78.14
2023-06-04T03:30:17.461Z,77.27
2023-06-04T03:32:46.731Z,76.40
2023-06-04T03:35:14.678Z,76.66
2023-06-04T03:37:42.477Z,75.88
2023-06-04T03:40:10.823Z,74.64
2023-06-04T03:42:38.643Z,73.60
2023-06-04T03:45:07.265Z,73.04
2023-06-04T03:47:35.284Z,72.71
2023-06-04T03:50:03.924Z,71.80
2023-06-04T03:52:32.529Z,70.81
2023-06-04T03:55:01.412Z,69.40
2023-06-04T03:57:29.328Z,68.61
2023-06-04T03:59:57.206Z,67.74
2023-06-04T04:02:25.203Z,67.76
2023-06-04T04:04:55.485Z,67.98
2023-06-04T04:07:24.096Z,68.14
2023-06-04T04:09:53.231Z,67.50
2023-06-04T04:12:21.515Z,67.19
2023-06-04T04:14:49.615Z,67.14
2023-06-04T04:17:17.583Z,65.77
2023-06-04T04:19:45.508Z,61.52
2023-06-04T04:22:14.133Z,56.54
2023-06-04T04:24:41.989Z,53.56
2023-06-04T04:27:12.153Z,51.14
2023-06-04T04:29:40.550Z,49.89
2023-06-04T04:32:11.966Z,48.83
2023-06-04T04:34:54.753Z,48.26
2023-06-04T04:37:23.557Z,47.86
2023-06-04T04:39:52.959Z,48.38
2023-06-04T04:42:21.382Z,51.74
2023-06-04T04:44:51.428Z,54.96
2023-06-04T04:47:19.407Z,57.27
2023-06-04T04:49:50.327Z,57.93
2023-06-04T04:52:18.782Z,57.12
2023-06-04T04:54:46.549Z,55.11
2023-06-04T04:57:14.579Z,55.97
2023-06-04T04:59:42.626Z,57.52
2023-06-04T05:02:10.719Z,58.57
2023-06-04T05:04:38.873Z,58.91
2023-06-04T05:07:06.859Z,59.26
2023-06-04T05:09:34.801Z,59.65
2023-06-04T05:12:02.886Z,60.27
2023-06-04T05:14:30.796Z,59.28
2023-06-04T05:16:58.718Z,58.96
2023-06-04T05:19:26.574Z,58.62
2023-06-04T05:21:54.691Z,58.69
2023-06-04T05:24:22.621Z,58.85
2023-06-04T05:26:50.454Z,58.96
2023-06-04T05:29:18.417Z,59.18
2023-06-04T05:31:46.515Z,59.07
2023-06-04T05:34:17.645Z,59.46
2023-06-04T05:36:45.770Z,59.07
2023-06-04T05:39:13.694Z,59.20
2023-06-04T05:41:42.142Z,59.03
2023-06-04T05:44:10.097Z,58.46
2023-06-04T05:46:38.144Z,57.91
2023-06-04T05:49:05.972Z,57.84
2023-06-04T05:51:33.832Z,57.82
2023-06-04T05:54:02.776Z,57.22
2023-06-04T05:56:30.844Z,57.29
2023-06-04T05:58:58.758Z,57.29
2023-06-04T06:01:26.645Z,56.96
2023-06-04T06:03:55.965Z,57.14
2023-06-04T06:06:24.226Z,57.02
2023-06-04T06:08:53.797Z,57.24
2023-06-04T06:11:22.904Z,57.23
2023-06-04T06:13:50.819Z,57.03
2023-06-04T06:16:19.776Z,56.69
2023-06-04T06:18:48.145Z,56.23
2023-06-04T06:21:16.476Z,55.67
2023-06-04T06:23:44.482Z,55.08
2023-06-04T06:26:13.632Z,55.51
2023-06-04T06:28:41.922Z,55.74
2023-06-04T06:31:10.152Z,55.31
2023-06-04T06:33:42.361Z,54.82
2023-06-04T06:36:13.644Z,53.95
2023-06-04T06:38:41.888Z,52.82
2023-06-04T06:41:10.186Z,52.65
2023-06-04T06:43:38.557Z,52.14
2023-06-04T06:46:06.459Z,51.72
2023-06-04T06:48:34.463Z,51.94
2023-06-04T06:51:02.400Z,52.03
2023-06-04T06:53:30.636Z,51.92
2023-06-04T06:55:58.716Z,51.92
2023-06-04T06:58:26.904Z,51.88
2023-06-04T07:00:57.773Z,51.58
2023-06-04T07:03:26.033Z,49.99
2023-06-04T07:05:54.828Z,49.49
2023-06-04T07:08:22.820Z,49.32
2023-06-04T07:10:50.680Z,49.25
2023-06-04T07:13:18.580Z,48.44
2023-06-04T07:15:46.562Z,47.80
2023-06-04T07:18:14.603Z,47.48
2023-06-04T07:20:42.553Z,46.96
2023-06-04T07:23:11.124Z,47.20
2023-06-04T07:25:39.149Z,46.79
2023-06-04T07:28:07.330Z,46.86
2023-06-04T07:30:35.364Z,45.94
2023-06-04T07:33:03.729Z,45.04
2023-06-04T07:35:31.623Z,45.09
2023-06-04T07:37:59.424Z,44.40
2023-06-04T07:40:27.371Z,44.76
2023-06-04T07:42:55.766Z,43.74
2023-06-04T07:45:23.593Z,42.89
2023-06-04T07:47:51.465Z,43.14
2023-06-04T07:50:19.584Z,43.31
2023-06-04T07:52:47.355Z,43.43
2023-06-04T07:55:15.366Z,43.88
2023-06-04T07:57:43.331Z,43.38
2023-06-04T08:00:12.786Z,42.49
2023-06-04T08:02:40.820Z,40.95
2023-06-04T08:05:09.217Z,40.32
2023-06-04T08:07:37.295Z,40.66
2023-06-04T08:10:06.210Z,40.18
2023-06-04T08:12:34.501Z,39.41
2023-06-04T08:15:02.633Z,39.46
2023-06-04T08:17:30.587Z,38.96
2023-06-04T08:19:58.792Z,39.56
2023-06-04T08:22:28.530Z,40.23
2023-06-04T08:24:56.607Z,40.04
2023-06-04T08:27:24.419Z,39.82
2023-06-04T08:29:53.351Z,39.20
2023-06-04T08:32:21.519Z,39.30
2023-06-04T08:34:49.402Z,39.02
2023-06-04T08:37:18.613Z,40.12
2023-06-04T08:39:46.504Z,39.56
2023-06-04T08:42:23.956Z,39.73
2023-06-04T08:44:55.408Z,40.43
2023-06-04T08:47:26.122Z,40.61
2023-06-04T08:49:59.968Z,40.20
2023-06-04T08:52:29.162Z,40.40
2023-06-04T08:54:57.943Z,40.58
2023-06-04T08:57:26.115Z,40.48
2023-06-04T08:59:54.329Z,40.22
2023-06-04T09:02:22.644Z,39.94
2023-06-04T09:04:50.633Z,39.41
2023-06-04T09:07:18.865Z,39.80
2023-06-04T09:09:52.486Z,39.37
2023-06-04T09:12:30.619Z,39.52
2023-06-04T09:14:59.788Z,39.91
2023-06-04T09:17:29.608Z,39.60
2023-06-04T09:19:57.435Z,39.66
2023-06-04T09:22:38.346Z,39.50
2023-06-04T09:25:11.296Z,39.80
2023-06-04T09:27:41.183Z,39.77
2023-06-04T09:30:10.625Z,39.20
2023-06-04T09:32:38.651Z,38.49
2023-06-04T09:35:15.169Z,38.62
2023-06-04T09:37:52.371Z,38.37
2023-06-04T09:40:20.867Z,39.07
2023-06-04T09:42:55.528Z,38.95
2023-06-04T09:45:33.787Z,39.23
2023-06-04T09:48:03.742Z,39.33
2023-06-04T09:50:35.224Z,39.04
2023-06-04T09:53:14.337Z,39.09
2023-06-04T09:55:42.972Z,38.30
2023-06-04T09:58:13.486Z,38.63
2023-06-04T10:00:42.769Z,38.66
2023-06-04T10:03:16.053Z,39.07
2023-06-04T10:05:44.833Z,39.01
2023-06-04T10:08:15.820Z,38.99
2023-06-04T10:10:45.050Z,38.92
2023-06-04T10:13:19.950Z,38.83
2023-06-04T10:15:48.518Z,38.95
2023-06-04T10:18:17.455Z,39.90
2023-06-04T10:20:46.476Z,39.74
2023-06-04T10:23:16.355Z,39.82
2023-06-04T10:25:46.088Z,39.28
2023-06-04T10:28:14.988Z,39.30
2023-06-04T10:30:42.910Z,39.73
2023-06-04T10:33:12.073Z,39.83
2023-06-04T10:35:40.079Z,39.54
2023-06-04T10:38:14.453Z,39.94
2023-06-04T10:40:42.497Z,39.03
2023-06-04T10:43:13.483Z,39.05
2023-06-04T10:45:41.939Z,38.44
2023-06-04T10:48:12.002Z,38.45
2023-06-04T10:50:52.052Z,38.07
2023-06-04T10:53:21.319Z,37.68
2023-06-04T10:55:50.975Z,37.55
2023-06-04T10:58:19.328Z,37.77
2023-06-04T11:00:50.368Z,38.66
2023-06-04T11:03:19.154Z,38.29
2023-06-04T11:05:51.778Z,37.67
2023-06-04T11:08:29.625Z,37.76
2023-06-04T11:10:57.696Z,37.37
2023-06-04T11:13:29.106Z,37.02
2023-06-04T11:15:57.311Z,37.03
2023-06-04T11:18:26.014Z,37.86
2023-06-04T11:21:02.627Z,37.89
2023-06-04T11:23:30.982Z,37.18
2023-06-04T11:25:59.422Z,37.23
2023-06-04T11:28:28.218Z,37.66
2023-06-04T11:31:04.549Z,37.41
2023-06-04T11:33:53.443Z,37.80
2023-06-04T11:36:29.474Z,37.66
2023-06-04T11:39:02.243Z,37.68
2023-06-04T11:41:31.964Z,37.71
2023-06-04T11:44:08.181Z,36.81
2023-06-04T11:46:41.983Z,36.67
2023-06-04T11:49:15.928Z,36.58
2023-06-04T11:51:48.653Z,36.81
2023-06-04T11:54:21.576Z,37.22
2023-06-04T11:56:51.905Z,37.11
2023-06-04T11:59:20.729Z,36.33
2023-06-04T12:01:49.687Z,36.72
2023-06-04T12:04:19.363Z,36.23
2023-06-04T12:07:02.622Z,36.57
2023-06-04T12:09:34.082Z,36.38
2023-06-04T12:12:04.225Z,36.14
2023-06-04T12:14:32.962Z,35.77
2023-06-04T12:17:09.459Z,36.23
2023-06-04T12:19:52.240Z,36.57
2023-06-04T12:22:21.063Z,36.86
2023-06-04T12:24:54.934Z,36.15
2023-06-04T12:27:26.720Z,35.72
2023-06-04T12:29:59.693Z,35.96
2023-06-04T12:32:28.496Z,36.26
2023-06-04T12:34:57.373Z,36.78
2023-06-04T12:37:28.684Z,36.37
2023-06-04T12:39:57.152Z,36.38
2023-06-04T12:42:25.026Z,36.38
2023-06-04T12:44:53.014Z,35.85
2023-06-04T12:47:22.418Z,35.60
2023-06-04T12:49:50.617Z,36.27
2023-06-04T12:52:19.136Z,35.79
2023-06-04T12:54:47.321Z,35.39
2023-06-04T12:57:15.454Z,35.93
2023-06-04T12:59:43.581Z,36.02
2023-06-04T13:02:12.177Z,36.13
2023-06-04T13:04:40.279Z,35.32
2023-06-04T13:07:08.233Z,35.94
2023-06-04T13:09:36.392Z,35.90
2023-06-04T13:12:06.130Z,35.86
2023-06-04T13:14:34.343Z,35.06
2023-06-04T13:17:10.851Z,35.93
2023-06-04T13:19:49.034Z,35.16
2023-06-04T13:22:17.013Z,35.51
2023-06-04T13:24:45.073Z,35.84
2023-06-04T13:27:12.987Z,35.75
2023-06-04T13:29:44.473Z,35.53
2023-06-04T13:32:12.928Z,35.61
2023-06-04T13:34:41.127Z,35.53
2023-06-04T13:37:12.143Z,35.56
2023-06-04T13:39:40.627Z,35.92
2023-06-04T13:42:08.702Z,34.68
2023-06-04T13:44:37.137Z,34.42
2023-06-04T13:47:05.741Z,34.63
2023-06-04T13:49:35.205Z,35.43
2023-06-04T13:52:03.134Z,35.62
2023-06-04T13:54:32.583Z,35.57
2023-06-04T13:57:04.999Z,35.26
2023-06-04T13:59:34.312Z,34.95
2023-06-04T14:02:02.489Z,35.33
2023-06-04T14:04:31.145Z,35.60
2023-06-04T14:06:59.529Z,34.99
2023-06-04T14:09:27.602Z,35.35
2023-06-04T14:11:56.331Z,35.46
2023-06-04T14:14:24.495Z,35.36
2023-06-04T14:16:52.606Z,35.18
2023-06-04T14:19:24.140Z,35.20
2023-06-04T14:21:52.229Z,35.06
2023-06-04T14:24:20.206Z,35.24
2023-06-04T14:26:48.313Z,35.16
2023-06-04T14:29:16.532Z,34.86
2023-06-04T14:31:46.392Z,34.67
2023-06-04T14:34:14.652Z,34.86
2023-06-04T14:36:42.929Z,35.01
2023-06-04T14:39:11.079Z,34.35
2023-06-04T14:41:39.297Z,34.40
2023-06-04T14:44:07.422Z,34.58
2023-06-04T14:46:35.463Z,34.60
2023-06-04T14:49:03.379Z,34.64
2023-06-04T14:51:31.554Z,34.89
2023-06-04T14:53:59.430Z,34.61
2023-06-04T14:56:27.718Z,34.40
2023-06-04T14:58:55.732Z,34.64
2023-06-04T15:01:26.437Z,34.86
2023-06-04T15:03:54.538Z,35.17
2023-06-04T15:06:22.455Z,35.18
2023-06-04T15:08:50.597Z,34.60
2023-06-04T15:11:18.567Z,34.74
2023-06-04T15:13:46.702Z,35.53
2023-06-04T15:16:15.008Z,35.40
2023-06-04T15:18:43.199Z,35.58
2023-06-04T15:21:11.849Z,35.65
2023-06-04T15:23:39.995Z,36.15
2023-06-04T15:26:08.293Z,36.32
2023-06-04T15:28:36.510Z,36.02
2023-06-04T15:31:04.634Z,36.19
2023-06-04T15:33:32.784Z,36.39
2023-06-04T15:36:01.151Z,36.59
2023-06-04T15:38:31.225Z,36.31
2023-06-04T15:41:00.852Z,35.90
2023-06-04T15:43:28.849Z,35.64
2023-06-04T15:45:56.853Z,36.30
2023-06-04T15:48:27.429Z,36.50
2023-06-04T15:50:55.971Z,36.29
2023-06-04T15:53:24.128Z,36.16
2023-06-04T15:55:52.318Z,35.85
2023-06-04T15:58:20.601Z,36.06
2023-06-04T16:00:48.616Z,36.03
2023-06-04T16:03:17.033Z,35.88
2023-06-04T16:05:45.506Z,36.56
2023-06-04T16:08:15.574Z,36.15
2023-06-04T16:10:45.932Z,36.23
2023-06-04T16:13:14.077Z,36.57
2023-06-04T16:15:43.111Z,36.13
2023-06-04T16:18:11.356Z,36.61
2023-06-04T16:20:39.716Z,36.49
2023-06-04T16:23:08.038Z,37.01
2023-06-04T16:25:37.546Z,36.31
2023-06-04T16:28:06.744Z,36.55
2023-06-04T16:30:34.923Z,36.42
2023-06-04T16:33:03.265Z,36.52
2023-06-04T16:35:32.996Z,36.88
2023-06-04T16:38:01.285Z,36.72
2023-06-04T16:40:29.390Z,36.40
2023-06-04T16:42:57.320Z,36.48
2023-06-04T16:45:25.309Z,37.10
2023-06-04T16:47:53.474Z,36.66
2023-06-04T16:50:21.805Z,36.80
2023-06-04T16:52:50.254Z,36.59
2023-06-04T16:55:18.389Z,36.89
2023-06-04T16:57:46.749Z,36.86
2023-06-04T17:00:26.559Z,36.61
2023-06-04T17:02:57.885Z,36.97
2023-06-04T17:05:27.118Z,36.85
2023-06-04T17:07:55.807Z,36.69
2023-06-04T17:10:31.731Z,36.83
2023-06-04T17:13:01.324Z,37.11
2023-06-04T17:15:30.007Z,36.96
2023-06-04T17:18:01.848Z,36.77
2023-06-04T17:20:31.880Z,36.92
2023-06-04T17:23:01.564Z,37.22
2023-06-04T17:25:33.286Z,37.01
2023-06-04T17:28:01.809Z,37.22
2023-06-04T17:30:29.943Z,37.17
2023-06-04T17:32:59.459Z,37.45
2023-06-04T17:35:27.683Z,37.61
2023-06-04T17:37:57.393Z,37.87
2023-06-04T17:40:27.488Z,37.82
2023-06-04T17:42:56.201Z,37.84
2023-06-04T17:45:24.339Z,38.05
2023-06-04T17:47:52.694Z,38.22
2023-06-04T17:50:20.940Z,38.39
2023-06-04T17:52:50.564Z,38.25
2023-06-04T17:55:19.136Z,38.20
2023-06-04T17:57:47.061Z,38.31
2023-06-04T18:00:16.164Z,38.75
2023-06-04T18:02:44.316Z,38.78
2023-06-04T18:05:12.538Z,38.81
2023-06-04T18:07:40.826Z,38.88
2023-06-04T18:10:09.728Z,38.97
2023-06-04T18:12:38.824Z,38.88
2023-06-04T18:15:07.741Z,39.41
2023-06-04T18:17:36.043Z,40.79
2023-06-04T18:20:04.343Z,41.09
2023-06-04T18:22:32.546Z,41.99
2023-06-04T18:25:00.716Z,42.36
2023-06-04T18:27:29.231Z,43.40
2023-06-04T18:29:58.265Z,44.28
2023-06-04T18:32:26.188Z,45.00
2023-06-04T18:34:54.213Z,45.41
2023-06-04T18:37:23.335Z,46.54
2023-06-04T18:39:51.812Z,46.84
2023-06-04T18:42:30.096Z,47.14
2023-06-04T18:45:00.582Z,47.47
2023-06-04T18:47:29.177Z,48.68
2023-06-04T18:49:57.493Z,49.15
2023-06-04T18:52:25.803Z,50.10
2023-06-04T18:54:53.879Z,50.82
2023-06-04T18:57:21.941Z,51.03
2023-06-04T18:59:49.901Z,50.95
2023-06-04T19:02:18.150Z,51.45
2023-06-04T19:04:46.964Z,51.95
2023-06-04T19:07:14.847Z,51.98
2023-06-04T19:09:42.994Z,51.15
2023-06-04T19:12:11.133Z,51.98
2023-06-04T19:14:40.142Z,52.55
2023-06-04T19:17:08.385Z,52.80
2023-06-04T19:19:36.380Z,52.11
2023-06-04T19:22:04.881Z,52.18
2023-06-04T19:24:32.985Z,52.64
2023-06-04T19:27:00.940Z,52.91
2023-06-04T19:29:28.933Z,53.82
2023-06-04T19:31:57.108Z,54.25
2023-06-04T19:34:27.744Z,54.70
2023-06-04T19:36:57.055Z,55.48
2023-06-04T19:39:26.935Z,56.50
2023-06-04T19:41:55.020Z,57.08
2023-06-04T19:44:23.190Z,57.94
2023-06-04T19:46:51.384Z,58.07
2023-06-04T19:49:20.902Z,58.81
2023-06-04T19:51:49.355Z,59.06
2023-06-04T19:54:17.413Z,59.14
2023-06-04T19:56:45.590Z,57.28
2023-06-04T19:59:13.603Z,57.03
2023-06-04T20:01:42.055Z,57.21
2023-06-04T20:04:10.406Z,57.92
2023-06-04T20:06:39.017Z,58.45
2023-06-04T20:09:08.459Z,57.06
2023-06-04T20:11:36.598Z,58.09
2023-06-04T20:14:05.334Z,59.06
2023-06-04T20:16:33.333Z,59.53
2023-06-04T20:19:01.408Z,58.51
2023-06-04T20:21:34.007Z,59.62
2023-06-04T20:24:05.139Z,59.31
2023-06-04T20:26:34.154Z,58.07
2023-06-04T20:29:02.216Z,58.34
2023-06-04T20:31:30.608Z,57.38
2023-06-04T20:33:58.888Z,57.37
2023-06-04T20:36:27.678Z,58.08
2023-06-04T20:38:57.462Z,58.53
2023-06-04T20:41:26.065Z,59.23
2023-06-04T20:43:56.249Z,59.87
2023-06-04T20:46:24.855Z,59.98
2023-06-04T20:48:52.825Z,60.39
2023-06-04T20:51:21.091Z,60.79
2023-06-04T20:53:50.544Z,60.92
2023-06-04T20:56:18.724Z,61.39
2023-06-04T20:58:48.037Z,62.31
2023-06-04T21:01:16.011Z,62.91
2023-06-04T21:03:44.306Z,62.89
2023-06-04T21:06:12.851Z,63.24
2023-06-04T21:08:41.100Z,63.29
2023-06-04T21:11:09.548Z,63.10
2023-06-04T21:13:38.070Z,62.52
2023-06-04T21:16:06.370Z,63.07
2023-06-04T21:18:34.408Z,63.45
2023-06-04T21:21:02.353Z,63.63
2023-06-04T21:23:30.528Z,63.70
2023-06-04T21:25:58.376Z,64.13
2023-06-04T21:28:26.208Z,64.56
2023-06-04T21:30:54.146Z,64.33
2023-06-04T21:33:22.147Z,64.85
2023-06-04T21:35:50.063Z,65.30
2023-06-04T21:38:18.114Z,65.47
2023-06-04T21:40:46.017Z,65.01
2023-06-04T21:43:13.985Z,65.27
2023-06-04T21:45:42.269Z,65.28
2023-06-04T21:48:10.090Z,65.81
2023-06-04T21:50:38.017Z,66.69
2023-06-04T21:53:06.041Z,67.10
2023-06-04T21:55:36.456Z,67.12
2023-06-04T21:58:04.806Z,67.06
2023-06-04T22:00:33.082Z,67.30
2023-06-04T22:03:01.513Z,66.94
2023-06-04T22:05:29.956Z,66.78
2023-06-04T22:07:59.567Z,66.35
2023-06-04T22:10:27.979Z,66.50
2023-06-04T22:12:55.797Z,66.81
2023-06-04T22:15:23.685Z,66.81
2023-06-04T22:17:51.654Z,66.22
2023-06-04T22:20:19.577Z,65.74
2023-06-04T22:22:47.438Z,66.31
2023-06-04T22:25:15.582Z,66.65
2023-06-04T22:27:43.420Z,67.30
2023-06-04T22:30:11.920Z,67.71
2023-06-04T22:32:39.849Z,67.63
2023-06-04T22:35:07.920Z,67.99
2023-06-04T22:37:35.781Z,68.54
2023-06-04T22:40:04.205Z,68.79
2023-06-04T22:42:32.227Z,69.06
2023-06-04T22:45:00.109Z,69.69
2023-06-04T22:47:28.308Z,70.40
2023-06-04T22:49:56.220Z,71.40
2023-06-04T22:52:24.575Z,71.59
2023-06-04T22:54:52.990Z,71.83
2023-06-04T22:57:20.887Z,72.03
2023-06-04T22:59:48.778Z,72.32
2023-06-04T23:02:16.625Z,72.49
2023-06-04T23:04:44.882Z,72.98
2023-06-04T23:07:12.859Z,73.40
2023-06-04T23:09:40.846Z,73.91
2023-06-04T23:12:09.957Z,74.14
2023-06-04T23:14:37.868Z,74.54
2023-06-04T23:17:05.775Z,75.03
2023-06-04T23:19:33.719Z,75.52
2023-06-04T23:22:01.806Z,75.61
2023-06-04T23:24:29.567Z,75.01
2023-06-04T23:26:57.391Z,75.54
2023-06-04T23:29:25.657Z,74.87
2023-06-04T23:31:53.617Z,73.44
2023-06-04T23:34:21.482Z,72.85
2023-06-04T23:36:49.248Z,73.56
2023-06-04T23:39:18.177Z,76.29
2023-06-04T23:41:46.312Z,77.18
2023-06-04T23:44:15.561Z,77.27
2023-06-04T23:46:45.460Z,77.96
2023-06-04T23:49:13.316Z,78.57
2023-06-04T23:51:41.481Z,78.48
2023-06-04T23:54:09.386Z,78.29
2023-06-04T23:56:38.804Z,78.61
2023-06-04T23:59:08.024Z,78.67
